Time,TemperatureF,DewpointF,PressureIn,WindDirection,WindDirectionDegrees,WindSpeedMPH,WindSpeedGustMPH,Humidity,HourlyPrecipIn,Conditions,Clouds,dailyrainin,SoftwareType,DateUTC
2013-06-13 00:12:00,76.0,74.0,30.00,West,259,0.0,1.0,94,0.00,,,0.00,weatherlink.com 1.10,2013-06-13 05:12:00,
2013-06-13 00:27:00,76.1,74.0,30.00,WNW,301,0.0,1.0,93,0.00,,,0.00,weatherlink.com 1.10,2013-06-13 05:27:00,
2013-06-13 00:42:00,75.9,74.0,30.00,SW,224,0.0,2.0,94,0.00,,,0.00,weatherlink.com 1.10,2013-06-13 05:42:00,
2013-06-13 00:57:00,75.8,74.0,30.00,SE,143,0.0,1.0,94,0.00,,,0.00,weatherlink.com 1.10,2013-06-13 05:57:00,
2013-06-13 01:12:00,75.4,74.0,30.00,SSE,165,0.0,0.0,95,0.00,,,0.00,weatherlink.com 1.10,2013-06-13 06:12:00,
2013-06-13 01:27:00,75.0,74.0,29.99,SSE,165,0.0,0.0,95,0.00,,,0.00,weatherlink.com 1.10,2013-06-13 06:27:00,
2013-06-13 01:42:00,74.6,73.0,29.99,SSE,165,0.0,0.0,95,0.00,,,0.00,weatherlink.com 1.10,2013-06-13 06:42:00,
2013-06-13 01:57:00,74.3,73.0,29.99,SSE,165,0.0,0.0,96,0.00,,,0.00,weatherlink.com 1.10,2013-06-13 06:57:00,
2013-06-13 02:12:00,74.1,73.0,29.99,SSE,165,0.0,0.0,96,0.00,,,0.00,weatherlink.com 1.10,2013-06-13 07:12:00,
2013-06-13 02:27:00,73.8,73.0,29.99,SSE,165,0.0,0.0,96,0.00,,,0.00,weatherlink.com 1.10,2013-06-13 07:27:00,
2013-06-13 02:42:00,73.6,73.0,29.99,SSE,165,0.0,0.0,97,0.00,,,0.00,weatherlink.com 1.10,2013-06-13 07:42:00,
2013-06-13 02:57:00,73.4,73.0,29.99,SSE,165,0.0,0.0,97,0.00,,,0.00,weatherlink.com 1.10,2013-06-13 07:57:00,
2013-06-13 03:12:00,73.0,72.0,29.99,SSE,165,0.0,0.0,97,0.00,,,0.00,weatherlink.com 1.10,2013-06-13 08:12:00,
2013-06-13 03:27:00,72.9,72.0,29.99,SSE,166,0.0,0.0,97,0.00,,,0.00,weatherlink.com 1.10,2013-06-13 08:27:00,
2013-06-13 03:42:00,72.7,72.0,29.98,SSE,166,0.0,0.0,97,0.00,,,0.00,weatherlink.com 1.10,2013-06-13 08:42:00,
2013-06-13 03:57:00,72.6,72.0,29.98,SSE,165,0.0,0.0,97,0.00,,,0.00,weatherlink.com 1.10,2013-06-13 08:57:00,
2013-06-13 04:12:00,72.5,72.0,29.98,SSE,167,0.0,0.0,98,0.00,,,0.00,weatherlink.com 1.10,2013-06-13 09:12:00,
2013-06-13 04:27:00,72.6,72.0,29.98,SSE,167,0.0,0.0,98,0.00,,,0.00,weatherlink.com 1.10,2013-06-13 09:27:00,
2013-06-13 04:42:00,72.4,72.0,29.98,SSE,166,0.0,0.0,98,0.00,,,0.00,weatherlink.com 1.10,2013-06-13 09:42:00,
2013-06-13 04:57:00,72.2,72.0,29.98,SSE,167,0.0,0.0,98,0.00,,,0.00,weatherlink.com 1.10,2013-06-13 09:57:00,
2013-06-13 05:12:00,71.9,71.0,29.99,SSE,167,0.0,0.0,98,0.00,,,0.00,weatherlink.com 1.10,2013-06-13 10:12:00,
2013-06-13 05:27:00,72.1,72.0,29.99,SSE,167,0.0,0.0,98,0.00,,,0.00,weatherlink.com 1.10,2013-06-13 10:27:00,
2013-06-13 05:42:00,72.1,72.0,30.00,SSE,166,0.0,0.0,98,0.00,,,0.00,weatherlink.com 1.10,2013-06-13 10:42:00,
2013-06-13 05:57:00,71.7,71.0,30.00,SSE,166,0.0,0.0,98,0.00,,,0.00,weatherlink.com 1.10,2013-06-13 10:57:00,
2013-06-13 06:12:00,71.6,71.0,30.00,SSE,167,0.0,0.0,98,0.00,,,0.00,weatherlink.com 1.10,2013-06-13 11:12:00,
2013-06-13 06:27:00,72.0,72.0,30.00,SSE,166,0.0,0.0,99,0.00,,,0.00,weatherlink.com 1.10,2013-06-13 11:27:00,
2013-06-13 06:42:00,73.0,73.0,30.00,SSW,210,0.0,1.0,99,0.00,,,0.00,weatherlink.com 1.10,2013-06-13 11:42:00,
2013-06-13 06:57:00,73.6,73.0,30.01,WNW,288,0.0,2.0,99,0.00,,,0.00,weatherlink.com 1.10,2013-06-13 11:57:00,
2013-06-13 07:13:00,74.6,73.0,30.01,WNW,297,1.0,3.0,96,0.00,,,0.00,weatherlink.com 1.10,2013-06-13 12:13:00,
2013-06-13 07:28:00,75.7,74.0,30.01,WNW,297,1.0,4.0,93,0.00,,,0.00,weatherlink.com 1.10,2013-06-13 12:28:00,
2013-06-13 07:43:00,77.0,74.0,30.01,WNW,295,1.0,5.0,91,0.00,,,0.00,weatherlink.com 1.10,2013-06-13 12:43:00,
2013-06-13 07:58:00,78.7,75.0,30.01,WNW,297,2.0,2.0,88,0.00,,,0.00,weatherlink.com 1.10,2013-06-13 12:58:00,
2013-06-13 08:13:00,80.1,76.0,30.01,WSW,248,2.0,3.0,86,0.00,,,0.00,weatherlink.com 1.10,2013-06-13 13:13:00,
2013-06-13 08:28:00,81.6,76.0,30.02,WSW,256,1.0,4.0,83,0.00,,,0.00,weatherlink.com 1.10,2013-06-13 13:28:00,
2013-06-13 08:43:00,82.7,76.0,30.02,WNW,285,2.0,4.0,80,0.00,,,0.00,weatherlink.com 1.10,2013-06-13 13:43:00,
2013-06-13 08:58:00,84.0,77.0,30.01,WNW,291,2.0,4.0,78,0.00,,,0.00,weatherlink.com 1.10,2013-06-13 13:58:00,
2013-06-13 09:13:00,85.2,77.0,30.01,WNW,295,0.0,5.0,75,0.00,,,0.00,weatherlink.com 1.10,2013-06-13 14:13:00,
2013-06-13 09:28:00,87.1,76.0,30.01,West,264,0.0,4.0,70,0.00,,,0.00,weatherlink.com 1.10,2013-06-13 14:28:00,
2013-06-13 09:43:00,88.1,76.0,30.00,West,271,4.0,8.0,67,0.00,,,0.00,weatherlink.com 1.10,2013-06-13 14:43:00,
2013-06-13 09:58:00,88.8,76.0,30.01,WSW,254,2.0,4.0,67,0.00,,,0.00,weatherlink.com 1.10,2013-06-13 14:58:00,
2013-06-13 10:13:00,88.9,75.0,30.00,WSW,238,3.0,6.0,64,0.00,,,0.00,weatherlink.com 1.10,2013-06-13 15:13:00,
2013-06-13 10:28:00,90.3,76.0,30.00,West,271,2.0,4.0,63,0.00,,,0.00,weatherlink.com 1.10,2013-06-13 15:28:00,
2013-06-13 10:43:00,90.3,76.0,30.00,WNW,299,4.0,6.0,62,0.00,,,0.00,weatherlink.com 1.10,2013-06-13 15:43:00,
2013-06-13 10:58:00,90.0,75.0,30.00,NW,319,2.0,7.0,61,0.00,,,0.00,weatherlink.com 1.10,2013-06-13 15:58:00,
2013-06-13 11:13:00,91.1,77.0,29.99,West,278,2.0,7.0,64,0.00,,,0.00,weatherlink.com 1.10,2013-06-13 16:13:00,
2013-06-13 11:28:00,91.7,75.0,29.99,WSW,253,4.0,8.0,59,0.00,,,0.00,weatherlink.com 1.10,2013-06-13 16:28:00,
2013-06-13 11:43:00,91.8,75.0,29.98,ESE,122,2.0,7.0,58,0.00,,,0.00,weatherlink.com 1.10,2013-06-13 16:43:00,
2013-06-13 11:58:00,91.5,75.0,29.98,SSW,204,0.0,8.0,59,0.00,,,0.00,weatherlink.com 1.10,2013-06-13 16:58:00,
2013-06-13 12:13:00,91.0,75.0,29.97,West,266,2.0,6.0,59,0.00,,,0.00,weatherlink.com 1.10,2013-06-13 17:13:00,
2013-06-13 12:28:00,90.7,74.0,29.97,NW,323,6.0,7.0,59,0.00,,,0.00,weatherlink.com 1.10,2013-06-13 17:28:00,
2013-06-13 12:43:00,91.4,75.0,29.96,NW,322,5.0,5.0,58,0.00,,,0.00,weatherlink.com 1.10,2013-06-13 17:43:00,
2013-06-13 12:59:00,91.5,74.0,29.95,NW,307,1.0,6.0,57,0.00,,,0.00,weatherlink.com 1.10,2013-06-13 17:59:00,
2013-06-13 13:14:00,92.4,74.0,29.95,South,190,2.0,6.0,55,0.00,,,0.00,weatherlink.com 1.10,2013-06-13 18:14:00,
2013-06-13 13:29:00,93.8,75.0,29.94,WNW,298,4.0,6.0,54,0.00,,,0.00,weatherlink.com 1.10,2013-06-13 18:29:00,
2013-06-13 13:44:00,93.2,74.0,29.93,WSW,253,7.0,7.0,54,0.00,,,0.00,weatherlink.com 1.10,2013-06-13 18:44:00,
2013-06-13 13:59:00,94.7,74.0,29.93,West,274,3.0,7.0,52,0.00,,,0.00,weatherlink.com 1.10,2013-06-13 18:59:00,
2013-06-13 14:14:00,94.6,73.0,29.92,NNW,328,3.0,5.0,50,0.00,,,0.00,weatherlink.com 1.10,2013-06-13 19:14:00,
2013-06-13 14:29:00,95.2,73.0,29.92,NW,322,1.0,8.0,49,0.00,,,0.00,weatherlink.com 1.10,2013-06-13 19:29:00,
2013-06-13 14:44:00,94.4,74.0,29.91,West,281,3.0,6.0,51,0.00,,,0.00,weatherlink.com 1.10,2013-06-13 19:44:00,
2013-06-13 14:59:00,93.6,73.0,29.91,West,266,1.0,5.0,51,0.00,,,0.00,weatherlink.com 1.10,2013-06-13 19:59:00,
2013-06-13 15:14:00,92.5,73.0,29.90,NW,322,1.0,7.0,54,0.00,,,0.00,weatherlink.com 1.10,2013-06-13 20:14:00,
2013-06-13 15:29:00,94.0,72.0,29.89,NW,311,2.0,8.0,49,0.00,,,0.00,weatherlink.com 1.10,2013-06-13 20:29:00,
2013-06-13 15:44:00,94.5,73.0,29.89,SW,231,5.0,6.0,49,0.00,,,0.00,weatherlink.com 1.10,2013-06-13 20:44:00,
2013-06-13 15:59:00,94.7,70.0,29.89,West,269,5.0,11.0,45,0.00,,,0.00,weatherlink.com 1.10,2013-06-13 20:59:00,
2013-06-13 16:29:00,94.2,72.0,29.87,West,270,3.0,6.0,48,0.00,,,0.00,weatherlink.com 1.10,2013-06-13 21:29:00,
2013-06-13 16:44:00,94.3,72.0,29.87,NW,319,5.0,8.0,48,0.00,,,0.00,weatherlink.com 1.10,2013-06-13 21:44:00,
2013-06-13 16:59:00,95.2,71.0,29.87,West,262,4.0,4.0,46,0.00,,,0.00,weatherlink.com 1.10,2013-06-13 21:59:00,
2013-06-13 17:14:00,94.5,73.0,29.86,WSW,239,1.0,7.0,50,0.00,,,0.00,weatherlink.com 1.10,2013-06-13 22:14:00,
2013-06-13 17:29:00,94.3,72.0,29.86,South,184,4.0,10.0,49,0.00,,,0.00,weatherlink.com 1.10,2013-06-13 22:29:00,
2013-06-13 17:44:00,94.1,72.0,29.85,WSW,249,1.0,3.0,49,0.00,,,0.00,weatherlink.com 1.10,2013-06-13 22:44:00,
2013-06-13 18:00:00,92.7,72.0,29.85,NNW,345,4.0,6.0,51,0.00,,,0.00,weatherlink.com 1.10,2013-06-13 23:00:00,
2013-06-13 18:14:00,92.1,72.0,29.85,West,271,3.0,6.0,52,0.00,,,0.00,weatherlink.com 1.10,2013-06-13 23:14:00,
2013-06-13 18:29:00,91.4,71.0,29.86,NW,304,4.0,5.0,52,0.00,,,0.00,weatherlink.com 1.10,2013-06-13 23:29:00,
2013-06-13 18:44:00,91.0,73.0,29.86,West,280,0.0,7.0,55,0.00,,,0.00,weatherlink.com 1.10,2013-06-13 23:44:00,
2013-06-13 18:59:00,89.3,73.0,29.85,West,274,0.0,3.0,59,0.00,,,0.00,weatherlink.com 1.10,2013-06-13 23:59:00,
2013-06-13 19:14:00,88.1,71.0,29.84,WNW,303,2.0,5.0,58,0.00,,,0.00,weatherlink.com 1.10,2013-06-14 00:14:00,
2013-06-13 19:29:00,86.7,74.0,29.85,West,269,0.0,1.0,65,0.00,,,0.00,weatherlink.com 1.10,2013-06-14 00:29:00,
2013-06-13 19:44:00,85.0,73.0,29.84,West,269,0.0,0.0,68,0.00,,,0.00,weatherlink.com 1.10,2013-06-14 00:44:00,
2013-06-13 19:59:00,83.2,73.0,29.84,West,269,0.0,0.0,71,0.00,,,0.00,weatherlink.com 1.10,2013-06-14 00:59:00,
2013-06-13 20:14:00,81.5,73.0,29.84,West,269,0.0,0.0,75,0.00,,,0.00,weatherlink.com 1.10,2013-06-14 01:14:00,
2013-06-13 20:29:00,80.3,73.0,29.85,West,269,0.0,0.0,77,0.00,,,0.00,weatherlink.com 1.10,2013-06-14 01:29:00,
2013-06-13 20:44:00,79.4,72.0,29.85,West,269,0.0,0.0,79,0.00,,,0.00,weatherlink.com 1.10,2013-06-14 01:44:00,
2013-06-13 20:59:00,78.9,72.0,29.85,West,269,0.0,0.0,80,0.00,,,0.00,weatherlink.com 1.10,2013-06-14 01:59:00,
2013-06-13 21:14:00,78.5,73.0,29.86,West,269,0.0,0.0,82,0.00,,,0.00,weatherlink.com 1.10,2013-06-14 02:14:00,
2013-06-13 21:29:00,78.3,72.0,29.87,West,269,0.0,0.0,82,0.00,,,0.00,weatherlink.com 1.10,2013-06-14 02:29:00,
2013-06-13 21:44:00,78.1,73.0,29.87,West,269,0.0,0.0,83,0.00,,,0.00,weatherlink.com 1.10,2013-06-14 02:44:00,
2013-06-13 21:59:00,77.7,73.0,29.86,West,269,0.0,0.0,84,0.00,,,0.00,weatherlink.com 1.10,2013-06-14 02:59:00,
2013-06-13 22:14:00,77.3,73.0,29.87,West,270,0.0,0.0,85,0.00,,,0.00,weatherlink.com 1.10,2013-06-14 03:14:00,
2013-06-13 22:29:00,77.0,73.0,29.87,West,270,0.0,1.0,86,0.00,,,0.00,weatherlink.com 1.10,2013-06-14 03:29:00,
2013-06-13 22:44:00,77.3,73.0,29.87,West,269,0.0,0.0,87,0.00,,,0.00,weatherlink.com 1.10,2013-06-14 03:44:00,
2013-06-13 22:59:00,77.9,73.0,29.86,NE,40,0.0,1.0,84,0.00,,,0.00,weatherlink.com 1.10,2013-06-14 03:59:00,
2013-06-13 23:14:00,78.5,74.0,29.85,NNE,23,0.0,1.0,85,0.00,,,0.00,weatherlink.com 1.10,2013-06-14 04:14:00,
2013-06-13 23:29:00,79.1,74.0,29.88,ENE,60,0.0,4.0,85,0.00,,,0.00,weatherlink.com 1.10,2013-06-14 04:29:00,
2013-06-13 23:44:00,79.3,75.0,29.88,West,271,0.0,4.0,85,0.00,,,0.00,weatherlink.com 1.10,2013-06-14 04:44:00,
2013-06-13 23:59:00,79.0,75.0,29.88,NNW,343,0.0,4.0,86,0.00,,,0.00,weatherlink.com 1.10,2013-06-14 04:59:00,